Time;durP1;ratioP1;P1;durP2;ratioP2;P2;SDS_P1;SDS_P2;PMS_P1;PMS_P2;Temp;Humidity;BMP_temperature;BMP_pressure;BME280_temperature;BME280_humidity;BME280_pressure;Samples;Min_cycle;Max_cycle;Signal;HPM_P1;HPM_P2
2023/05/27 00:01:21;;;;;;;8.17;3.23;;;17.80;93.60;;;;;;5016429;28;20462;-64
2023/05/27 00:03:49;;;;;;;5.60;2.60;;;17.70;93.60;;;;;;5033975;28;20587;-64
2023/05/27 00:06:16;;;;;;;4.73;2.83;;;17.60;94.10;;;;;;5033772;28;20466;-64
2023/05/27 00:08:43;;;;;;;6.73;3.03;;;17.50;94.30;;;;;;5034075;28;20455;-64
2023/05/27 00:11:10;;;;;;;7.83;3.00;;;17.50;94.80;;;;;;5033665;28;20972;-64
2023/05/27 00:13:37;;;;;;;8.73;2.53;;;17.40;94.60;;;;;;5034078;28;20957;-63
2023/05/27 00:16:05;;;;;;;9.93;3.10;;;17.40;95.10;;;;;;5033805;28;20461;-63
2023/05/27 00:18:32;;;;;;;3.97;2.43;;;17.40;95.30;;;;;;5033052;28;20454;-64
2023/05/27 00:21:01;;;;;;;5.07;2.90;;;17.40;94.90;;;;;;5033531;28;21006;-64
2023/05/27 00:23:28;;;;;;;8.07;2.90;;;17.40;95.40;;;;;;5033575;28;20537;-64
2023/05/27 00:25:55;;;;;;;9.00;2.90;;;17.40;95.40;;;;;;5033531;28;20593;-64
2023/05/27 00:28:22;;;;;;;4.67;2.80;;;17.30;95.80;;;;;;5015969;28;20451;-64
2023/05/27 00:30:49;;;;;;;7.83;2.83;;;17.20;96.10;;;;;;5033798;28;20454;-63
2023/05/27 00:33:16;;;;;;;4.97;2.70;;;17.20;96.20;;;;;;5033374;28;20459;-64
2023/05/27 00:35:43;;;;;;;7.43;2.80;;;17.20;96.00;;;;;;5033109;28;20461;-64
2023/05/27 00:38:12;;;;;;;5.97;2.77;;;17.20;96.40;;;;;;5033206;28;20470;-64
2023/05/27 00:40:40;;;;;;;3.97;2.57;;;17.20;96.40;;;;;;5032918;28;20458;-64
2023/05/27 00:43:07;;;;;;;3.90;2.50;;;17.10;96.40;;;;;;5033297;28;20509;-64
2023/05/27 00:45:34;;;;;;;4.63;2.73;;;17.10;96.60;;;;;;5033456;28;20956;-63
2023/05/27 00:48:04;;;;;;;4.60;2.60;;;17.10;96.90;;;;;;5033339;28;20798;-64
2023/05/27 00:50:31;;;;;;;7.73;2.67;;;17.10;97.30;;;;;;5033508;28;20462;-63
2023/05/27 00:52:59;;;;;;;6.93;2.53;;;17.10;97.30;;;;;;5033264;28;20451;-64
2023/05/27 00:55:35;;;;;;;6.80;2.47;;;17.10;96.80;;;;;;5032959;28;20450;-64
2023/05/27 00:58:03;;;;;;;5.53;2.80;;;17.10;97.20;;;;;;5032923;28;20513;-64
2023/05/27 01:00:31;;;;;;;4.33;2.80;;;17.00;96.90;;;;;;5033033;28;20470;-64
2023/05/27 01:02:58;;;;;;;5.50;2.77;;;16.90;97.60;;;;;;5032718;28;20573;-64
2023/05/27 01:05:27;;;;;;;5.40;2.23;;;16.90;97.40;;;;;;5033128;28;20937;-65
2023/05/27 01:08:06;;;;;;;6.50;2.80;;;16.90;97.50;;;;;;5032572;28;20490;-65
2023/05/27 01:10:41;;;;;;;6.33;3.00;;;16.80;97.80;;;;;;5033066;28;20470;-64
2023/05/27 01:13:17;;;;;;;5.00;2.73;;;16.70;98.00;;;;;;5032773;28;20462;-64
2023/05/27 01:15:46;;;;;;;4.13;2.47;;;16.60;98.00;;;;;;5032737;28;20458;-64
2023/05/27 01:18:16;;;;;;;10.67;2.93;;;16.70;98.00;;;;;;5032554;28;20459;-64
2023/05/27 01:20:44;;;;;;;4.60;2.87;;;16.70;98.00;;;;;;5032542;28;20469;-64
2023/05/27 01:23:13;;;;;;;6.87;2.70;;;16.80;97.90;;;;;;5032497;28;20493;-64
2023/05/27 01:25:40;;;;;;;4.23;2.33;;;16.70;98.00;;;;;;5032590;28;20477;-64
2023/05/27 01:28:07;;;;;;;6.30;3.10;;;16.70;98.00;;;;;;5032488;28;20501;-64
2023/05/27 01:30:35;;;;;;;5.83;2.80;;;16.70;98.00;;;;;;5032461;28;20517;-64
2023/05/27 01:33:05;;;;;;;9.00;2.57;;;16.50;98.00;;;;;;5032376;28;20468;-65
2023/05/27 01:35:41;;;;;;;6.17;2.70;;;16.30;98.00;;;;;;5032315;28;20459;-65
2023/05/27 01:38:11;;;;;;;5.17;2.50;;;16.00;98.00;;;;;;4998107;28;20467;-65
2023/05/27 01:40:42;;;;;;;5.90;3.00;;;15.90;98.00;;;;;;5033085;28;20457;-65
2023/05/27 01:43:10;;;;;;;7.20;3.20;;;15.80;98.00;;;;;;5032220;28;20491;-66
2023/05/27 01:45:37;;;;;;;7.33;2.67;;;15.80;98.00;;;;;;5032630;28;20881;-66
2023/05/27 01:48:05;;;;;;;5.27;3.20;;;15.80;98.00;;;;;;5032178;28;20458;-66
2023/05/27 01:50:33;;;;;;;4.60;2.70;;;15.80;98.00;;;;;;5032522;28;20450;-66
2023/05/27 01:53:00;;;;;;;6.90;2.57;;;15.70;98.00;;;;;;5031168;28;20459;-65
2023/05/27 01:55:28;;;;;;;7.93;2.70;;;15.60;98.00;;;;;;5014654;28;20462;-67
2023/05/27 01:57:56;;;;;;;13.70;2.83;;;15.60;98.00;;;;;;5031879;28;20501;-67
2023/05/27 02:00:24;;;;;;;9.23;2.80;;;15.70;98.00;;;;;;5031981;28;20470;-66
2023/05/27 02:02:51;;;;;;;6.27;2.50;;;15.60;98.00;;;;;;5031771;28;20541;-66
2023/05/27 02:05:18;;;;;;;4.53;2.73;;;15.60;98.00;;;;;;5014335;28;20961;-68
2023/05/27 02:07:45;;;;;;;8.20;2.53;;;15.60;98.00;;;;;;5032079;28;20446;-67
2023/05/27 02:10:12;;;;;;;4.93;2.83;;;15.60;98.00;;;;;;5031870;28;20454;-68
2023/05/27 02:12:39;;;;;;;5.27;2.33;;;15.50;98.00;;;;;;5031925;28;20520;-68
2023/05/27 02:15:10;;;;;;;4.87;2.50;;;15.40;98.00;;;;;;5031742;28;20458;-68
2023/05/27 02:17:37;;;;;;;5.93;2.63;;;15.20;98.00;;;;;;5031815;28;20451;-68
2023/05/27 02:20:07;;;;;;;8.23;3.00;;;15.20;98.00;;;;;;5014497;28;20454;-68
2023/05/27 02:22:34;;;;;;;6.23;3.13;;;15.20;98.00;;;;;;5031810;28;20486;-68
2023/05/27 02:25:01;;;;;;;4.67;2.63;;;15.10;98.00;;;;;;5031859;28;20461;-67
2023/05/27 02:27:28;;;;;;;8.27;2.70;;;15.10;98.00;;;;;;5031762;28;20466;-68
2023/05/27 02:29:55;;;;;;;8.13;2.73;;;15.00;98.00;;;;;;5031749;28;20453;-68
2023/05/27 02:32:23;;;;;;;8.93;2.70;;;14.90;98.00;;;;;;5031712;28;20856;-66
2023/05/27 02:34:50;;;;;;;4.67;2.33;;;14.90;98.00;;;;;;5031897;28;20458;-67
2023/05/27 02:37:17;;;;;;;5.40;3.00;;;14.50;98.00;;;;;;5031625;28;20454;-68
2023/05/27 02:39:44;;;;;;;4.80;2.70;;;14.60;98.00;;;;;;5031617;28;20528;-68
2023/05/27 02:42:12;;;;;;;6.13;2.80;;;14.20;98.00;;;;;;5031983;28;20485;-67
2023/05/27 02:44:39;;;;;;;3.03;2.23;;;14.10;98.00;;;;;;5031761;28;20979;-67
2023/05/27 02:47:06;;;;;;;6.67;2.33;;;14.00;98.00;;;;;;5014059;28;20463;-66
2023/05/27 02:49:35;;;;;;;5.77;2.87;;;14.30;98.00;;;;;;5031514;28;20458;-67
2023/05/27 02:52:02;;;;;;;5.90;2.77;;;14.20;98.00;;;;;;4997875;28;20466;-67
2023/05/27 02:54:29;;;;;;;3.43;2.47;;;14.20;98.00;;;;;;5031343;28;20462;-67
2023/05/27 02:56:56;;;;;;;3.23;2.27;;;14.20;98.00;;;;;;5031320;28;20462;-67
2023/05/27 02:59:24;;;;;;;5.10;2.70;;;14.20;98.00;;;;;;5031221;28;20463;-67
2023/05/27 03:01:51;;;;;;;8.70;2.37;;;14.10;98.00;;;;;;5030678;28;20459;-67
2023/05/27 03:04:20;;;;;;;8.60;3.30;;;14.10;98.00;;;;;;5033702;28;20493;-67
2023/05/27 03:06:49;;;;;;;6.97;2.40;;;14.00;98.00;;;;;;5035062;28;20450;-67
2023/05/27 03:09:16;;;;;;;6.87;2.67;;;13.80;98.00;;;;;;5034558;28;20458;-67
2023/05/27 03:11:43;;;;;;;4.00;2.50;;;14.00;98.00;;;;;;5034307;28;20528;-68
2023/05/27 03:14:10;;;;;;;5.57;2.60;;;13.90;98.00;;;;;;5034211;28;20461;-68
2023/05/27 03:16:39;;;;;;;6.00;2.50;;;13.90;98.00;;;;;;5034199;28;20706;-67
2023/05/27 03:19:08;;;;;;;5.40;2.90;;;14.00;98.00;;;;;;5034193;28;20454;-67
2023/05/27 03:21:39;;;;;;;4.33;2.33;;;13.90;98.00;;;;;;5034559;28;20461;-68
2023/05/27 03:24:07;;;;;;;4.77;2.30;;;13.70;98.00;;;;;;5034761;28;21018;-68
2023/05/27 03:26:34;;;;;;;9.23;2.83;;;13.60;98.00;;;;;;5034779;28;20447;-68
2023/05/27 03:29:01;;;;;;;5.90;2.50;;;13.60;98.00;;;;;;5034795;28;20461;-68
2023/05/27 03:31:28;;;;;;;8.83;3.93;;;13.60;98.00;;;;;;5017322;28;20461;-67
2023/05/27 03:33:58;;;;;;;6.40;2.90;;;13.50;98.00;;;;;;5035035;28;20457;-68
2023/05/27 03:36:26;;;;;;;5.47;2.93;;;13.50;98.00;;;;;;5034511;28;20458;-67
2023/05/27 03:39:02;;;;;;;11.80;2.60;;;13.40;98.00;;;;;;5034900;28;20562;-68
2023/05/27 03:41:31;;;;;;;4.10;2.30;;;13.40;98.00;;;;;;5034746;28;20462;-68
2023/05/27 03:43:58;;;;;;;5.07;2.50;;;13.20;98.00;;;;;;5034632;28;20497;-68
2023/05/27 03:46:25;;;;;;;8.43;2.90;;;13.20;98.00;;;;;;5034608;28;20465;-67
2023/05/27 03:48:52;;;;;;;8.23;3.10;;;13.10;98.00;;;;;;5016806;28;20469;-67
2023/05/27 03:51:22;;;;;;;7.90;2.57;;;13.00;98.00;;;;;;5034367;28;20476;-67
2023/05/27 03:53:49;;;;;;;6.20;2.60;;;13.00;98.00;;;;;;5034271;28;20468;-67
2023/05/27 03:56:16;;;;;;;6.27;2.60;;;13.00;98.00;;;;;;5033938;28;20455;-66
2023/05/27 03:58:44;;;;;;;8.07;3.00;;;12.90;98.00;;;;;;5034221;28;20462;-67
2023/05/27 04:01:12;;;;;;;3.80;2.33;;;13.00;98.00;;;;;;5034147;28;20504;-67
2023/05/27 04:03:41;;;;;;;8.20;2.83;;;13.00;98.00;;;;;;5033856;28;20490;-68
2023/05/27 04:06:08;;;;;;;6.80;2.93;;;13.00;98.00;;;;;;5033963;28;20544;-68
2023/05/27 04:08:37;;;;;;;4.97;2.50;;;13.10;98.00;;;;;;5033967;28;21008;-68
2023/05/27 04:11:04;;;;;;;8.63;3.08;;;13.10;98.00;;;;;;5033079;28;20544;-68
2023/05/27 04:13:31;;;;;;;9.57;3.40;;;13.10;98.00;;;;;;5033863;28;20204;-68
2023/05/27 04:15:59;;;;;;;3.70;2.20;;;13.10;98.00;;;;;;5015534;28;20537;-68
2023/05/27 04:18:26;;;;;;;4.50;2.77;;;13.10;98.00;;;;;;5034076;28;20837;-67
2023/05/27 04:20:53;;;;;;;4.40;2.47;;;13.20;98.00;;;;;;5033913;28;20458;-68
2023/05/27 04:23:21;;;;;;;8.97;3.30;;;13.30;98.00;;;;;;5033747;28;21045;-68
2023/05/27 04:25:49;;;;;;;5.93;2.83;;;13.40;98.00;;;;;;5033914;28;20557;-68
2023/05/27 04:28:16;;;;;;;5.57;2.63;;;13.30;98.00;;;;;;5016373;28;20455;-68
2023/05/27 04:30:45;;;;;;;4.33;2.50;;;13.40;98.00;;;;;;5033697;28;20501;-68
2023/05/27 04:33:15;;;;;;;9.20;3.13;;;13.40;98.00;;;;;;5015907;28;20455;-68
2023/05/27 04:35:43;;;;;;;8.20;2.57;;;13.30;98.00;;;;;;5033860;28;20508;-68
2023/05/27 04:38:16;;;;;;;6.13;2.83;;;13.30;98.00;;;;;;5033496;28;20471;-67
2023/05/27 04:40:45;;;;;;;10.87;2.80;;;13.30;98.00;;;;;;5033242;28;20960;-68
2023/05/27 04:43:14;;;;;;;9.63;2.80;;;13.40;98.00;;;;;;5033096;28;20514;-68
2023/05/27 04:45:41;;;;;;;4.57;2.50;;;13.50;98.00;;;;;;5033056;28;20451;-68
2023/05/27 04:48:09;;;;;;;4.97;2.73;;;13.60;98.00;;;;;;5033057;28;20457;-68
2023/05/27 04:50:39;;;;;;;6.77;2.60;;;13.80;98.00;;;;;;5033054;28;20458;-67
2023/05/27 04:53:06;;;;;;;6.07;2.67;;;13.80;98.00;;;;;;5032877;28;20844;-67
2023/05/27 04:55:33;;;;;;;5.47;3.30;;;13.70;98.00;;;;;;5032931;28;20515;-68
2023/05/27 04:58:03;;;;;;;3.93;2.47;;;13.80;98.00;;;;;;5032780;28;20462;-68
2023/05/27 05:00:49;;;;;;;6.80;2.90;;;13.70;98.00;;;;;;5033143;28;20825;-68
2023/05/27 05:03:20;;;;;;;5.93;2.33;;;13.70;98.00;;;;;;5032756;28;20458;-68
2023/05/27 05:05:50;;;;;;;6.93;2.70;;;13.80;98.00;;;;;;5032965;28;20462;-68
2023/05/27 05:08:17;;;;;;;7.67;2.83;;;13.90;98.00;;;;;;5032685;28;20458;-68
2023/05/27 05:10:44;;;;;;;6.00;2.97;;;13.90;98.00;;;;;;5032982;28;20801;-68
2023/05/27 05:13:11;;;;;;;6.23;2.63;;;14.10;98.00;;;;;;5032766;28;20463;-68
2023/05/27 05:15:39;;;;;;;7.13;2.73;;;14.00;98.00;;;;;;5032970;28;20458;-68
2023/05/27 05:18:06;;;;;;;7.40;3.40;;;14.00;98.00;;;;;;5032730;28;20485;-68
2023/05/27 05:20:33;;;;;;;6.03;3.00;;;14.10;98.00;;;;;;5032745;28;20466;-68
2023/05/27 05:23:01;;;;;;;6.13;3.00;;;14.20;98.00;;;;;;5032734;28;20781;-68
2023/05/27 05:25:29;;;;;;;4.40;2.67;;;14.40;98.00;;;;;;5032639;28;20493;-67
2023/05/27 05:27:57;;;;;;;4.80;2.63;;;14.40;98.00;;;;;;5032574;28;20512;-67
2023/05/27 05:30:25;;;;;;;4.90;2.60;;;14.40;98.00;;;;;;5032838;28;20474;-67
2023/05/27 05:32:52;;;;;;;4.73;2.63;;;14.60;98.00;;;;;;5032514;28;20455;-67
2023/05/27 05:35:19;;;;;;;4.93;2.63;;;14.90;98.00;;;;;;5032582;28;20465;-67
2023/05/27 05:37:47;;;;;;;5.23;2.80;;;14.90;98.00;;;;;;5032028;28;21003;-67
2023/05/27 05:40:15;;;;;;;7.97;2.70;;;14.80;98.00;;;;;;5032330;28;20459;-67
2023/05/27 05:42:42;;;;;;;8.77;2.77;;;15.10;98.00;;;;;;5032239;28;20459;-65
2023/05/27 05:45:10;;;;;;;8.07;3.13;;;15.20;98.00;;;;;;5032498;28;20482;-65
2023/05/27 05:47:37;;;;;;;5.20;2.70;;;15.10;98.00;;;;;;5032016;28;20455;-65
2023/05/27 05:50:06;;;;;;;4.60;2.40;;;15.20;98.00;;;;;;5032180;28;20796;-66
2023/05/27 05:52:33;;;;;;;9.03;3.10;;;15.40;98.00;;;;;;5014841;28;20463;-65
2023/05/27 05:55:03;;;;;;;5.23;2.77;;;15.40;98.00;;;;;;5032147;28;20528;-65
2023/05/27 05:57:32;;;;;;;5.80;2.60;;;15.40;98.00;;;;;;5014452;28;20549;-65
2023/05/27 06:00:03;;;;;;;6.33;2.80;;;15.60;98.00;;;;;;5032036;28;20454;-63
2023/05/27 06:02:30;;;;;;;12.00;3.40;;;15.80;98.00;;;;;;5032304;28;20796;-62
2023/05/27 06:04:57;;;;;;;9.60;2.70;;;15.60;98.00;;;;;;5031325;28;20490;-62
2023/05/27 06:07:25;;;;;;;4.10;2.40;;;15.60;98.00;;;;;;5032043;28;20936;-62
2023/05/27 06:09:52;;;;;;;5.20;2.60;;;15.70;98.00;;;;;;5031959;28;20807;-62
2023/05/27 06:12:19;;;;;;;8.37;2.90;;;15.70;98.00;;;;;;5031926;28;20458;-62
2023/05/27 06:14:48;;;;;;;6.13;2.70;;;15.90;98.00;;;;;;5032005;28;20454;-62
2023/05/27 06:17:15;;;;;;;6.20;2.60;;;16.10;98.00;;;;;;5031723;28;21183;-62
2023/05/27 06:19:42;;;;;;;6.80;3.20;;;16.10;98.00;;;;;;5032240;28;20937;-61
2023/05/27 06:22:09;;;;;;;6.40;2.90;;;16.20;98.00;;;;;;5031634;28;20463;-61
2023/05/27 06:24:37;;;;;;;4.40;2.73;;;16.20;98.00;;;;;;5031838;28;20490;-61
2023/05/27 06:27:04;;;;;;;6.53;2.70;;;16.40;98.00;;;;;;5031896;28;20474;-61
2023/05/27 06:29:32;;;;;;;8.40;3.23;;;16.40;98.00;;;;;;5031886;28;20458;-62
2023/05/27 06:32:00;;;;;;;4.90;2.77;;;16.50;98.00;;;;;;5031559;28;20833;-61
2023/05/27 06:34:27;;;;;;;6.67;3.37;;;16.60;98.00;;;;;;5031991;28;20528;-61
2023/05/27 06:36:54;;;;;;;7.03;2.60;;;16.70;98.00;;;;;;5014022;28;20832;-61
2023/05/27 06:39:22;;;;;;;4.40;2.40;;;16.90;98.00;;;;;;5016852;28;20876;-61
2023/05/27 06:41:49;;;;;;;6.27;2.97;;;16.90;98.00;;;;;;5035633;28;20451;-61
2023/05/27 06:44:16;;;;;;;5.90;2.73;;;16.90;98.00;;;;;;5017815;28;20486;-61
2023/05/27 06:46:44;;;;;;;14.77;2.77;;;16.80;98.00;;;;;;5017915;28;20458;-61
2023/05/27 06:49:12;;;;;;;3.40;2.47;;;16.80;98.00;;;;;;5035090;28;20454;-62
2023/05/27 06:51:40;;;;;;;6.47;3.07;;;17.00;98.00;;;;;;5035588;28;20462;-61
2023/05/27 06:54:07;;;;;;;7.80;3.23;;;17.10;98.00;;;;;;5035246;28;20458;-61
2023/05/27 06:56:35;;;;;;;5.70;3.03;;;17.30;98.00;;;;;;5035182;28;20454;-61
2023/05/27 06:59:02;;;;;;;6.03;2.40;;;17.40;98.00;;;;;;5035425;28;20482;-61
2023/05/27 07:01:29;;;;;;;5.60;2.90;;;17.50;98.00;;;;;;5035097;28;20462;-61
2023/05/27 07:03:56;;;;;;;4.50;2.40;;;17.60;98.00;;;;;;5035261;28;20556;-61
2023/05/27 07:06:24;;;;;;;5.37;2.83;;;17.80;98.00;;;;;;5017626;28;20466;-61
2023/05/27 07:08:51;;;;;;;5.63;2.70;;;17.80;98.00;;;;;;5035016;28;20458;-61
2023/05/27 07:11:18;;;;;;;7.40;2.50;;;17.90;98.00;;;;;;5035070;28;20459;-61
2023/05/27 07:13:46;;;;;;;4.80;2.70;;;18.00;98.00;;;;;;5035129;28;20461;-61
2023/05/27 07:16:13;;;;;;;10.17;3.67;;;18.00;98.00;;;;;;5001122;28;20818;-61
2023/05/27 07:18:40;;;;;;;8.43;2.83;;;18.00;98.00;;;;;;5017591;28;20819;-61
2023/05/27 07:21:07;;;;;;;5.63;2.90;;;18.00;98.00;;;;;;5035103;28;20450;-61
2023/05/27 07:23:35;;;;;;;12.33;3.27;;;18.00;98.00;;;;;;5034786;28;20462;-61
2023/05/27 07:26:02;;;;;;;6.00;3.17;;;18.10;98.00;;;;;;5034592;28;20540;-61
2023/05/27 07:28:29;;;;;;;12.87;3.27;;;18.20;98.00;;;;;;5034891;28;20458;-62
2023/05/27 07:30:57;;;;;;;7.03;3.37;;;18.30;98.00;;;;;;5017109;28;20800;-61
2023/05/27 07:33:24;;;;;;;5.17;3.00;;;18.40;98.00;;;;;;5016937;28;20470;-62
2023/05/27 07:35:51;;;;;;;6.30;3.10;;;18.60;98.00;;;;;;5034590;28;20465;-62
2023/05/27 07:38:18;;;;;;;5.90;3.43;;;18.70;98.00;;;;;;5034163;28;20470;-61
2023/05/27 07:40:46;;;;;;;7.27;3.10;;;18.80;98.00;;;;;;5018609;28;20451;-61
2023/05/27 07:45:42;;;;;;;6.00;3.30;;;18.80;98.00;;;;;;5032099;28;20474;-61
2023/05/27 07:48:10;;;;;;;8.53;2.80;;;18.90;98.00;;;;;;5034124;28;20455;-61
2023/05/27 07:50:37;;;;;;;6.60;2.90;;;19.00;98.00;;;;;;5033147;28;20463;-61
2023/05/27 07:53:04;;;;;;;10.40;3.07;;;19.20;98.00;;;;;;5034262;28;20462;-61
2023/05/27 07:55:31;;;;;;;4.30;2.67;;;19.30;98.00;;;;;;5031058;28;20489;-61
2023/05/27 07:58:00;;;;;;;5.00;3.13;;;19.40;98.00;;;;;;5031777;28;20467;-61
2023/05/27 08:00:27;;;;;;;7.07;3.00;;;19.50;98.00;;;;;;5033642;28;20831;-61
2023/05/27 08:02:54;;;;;;;8.73;3.30;;;19.60;97.80;;;;;;5015590;28;20469;-61
2023/05/27 08:05:22;;;;;;;6.53;3.20;;;19.60;98.00;;;;;;5024623;28;20491;-61
2023/05/27 08:07:49;;;;;;;6.30;3.60;;;19.80;98.00;;;;;;5012554;28;20455;-61
2023/05/27 08:10:17;;;;;;;9.00;3.60;;;19.90;97.30;;;;;;5013326;28;20459;-61
2023/05/27 08:12:44;;;;;;;11.67;3.33;;;20.00;97.90;;;;;;5013532;28;20455;-61
2023/05/27 08:15:12;;;;;;;6.37;3.17;;;20.00;97.40;;;;;;5013490;28;20460;-61
2023/05/27 08:17:40;;;;;;;7.13;3.80;;;20.10;97.00;;;;;;5013397;28;20463;-61
2023/05/27 08:20:08;;;;;;;7.07;3.20;;;20.10;95.90;;;;;;5013547;28;20514;-61
2023/05/27 08:22:35;;;;;;;6.30;3.20;;;20.30;97.10;;;;;;5013280;28;20571;-61
2023/05/27 08:25:02;;;;;;;7.03;3.13;;;20.40;96.30;;;;;;5013288;28;20514;-61
2023/05/27 08:27:46;;;;;;;5.93;3.00;;;20.30;96.60;;;;;;5013233;28;20456;-61
2023/05/27 08:30:15;;;;;;;5.57;3.40;;;20.40;97.70;;;;;;5012864;28;20459;-62
2023/05/27 08:32:43;;;;;;;5.27;3.20;;;20.60;97.20;;;;;;5012805;28;20482;-61
2023/05/27 08:35:10;;;;;;;5.20;3.03;;;20.60;95.60;;;;;;5012695;28;20459;-61
2023/05/27 08:37:38;;;;;;;7.23;3.77;;;20.80;95.50;;;;;;5012840;28;20467;-61
2023/05/27 08:40:08;;;;;;;6.50;3.70;;;20.90;95.90;;;;;;5012963;28;20470;-61
2023/05/27 08:42:35;;;;;;;8.33;3.93;;;21.00;96.40;;;;;;5012843;28;20459;-62
2023/05/27 08:45:03;;;;;;;11.80;4.30;;;21.10;95.60;;;;;;5012606;28;20479;-62
2023/05/27 08:47:32;;;;;;;9.57;3.53;;;21.20;94.00;;;;;;5012874;28;20464;-61
2023/05/27 08:49:59;;;;;;;5.27;2.90;;;21.30;93.20;;;;;;5012766;28;20459;-62
2023/05/27 08:52:29;;;;;;;6.83;3.80;;;21.50;94.20;;;;;;5012529;28;20498;-62
2023/05/27 08:54:57;;;;;;;7.40;3.50;;;21.50;92.00;;;;;;5012670;28;20511;-61
2023/05/27 08:57:29;;;;;;;5.17;3.40;;;21.40;94.40;;;;;;4994685;28;20456;-62
2023/05/27 08:59:56;;;;;;;8.73;3.50;;;21.40;93.60;;;;;;5012750;28;20538;-62
2023/05/27 09:02:24;;;;;;;7.00;3.47;;;21.60;94.60;;;;;;5012098;28;20455;-62
2023/05/27 09:04:52;;;;;;;8.10;3.60;;;21.80;93.30;;;;;;5012440;28;20483;-61
2023/05/27 09:07:21;;;;;;;7.40;3.97;;;21.80;94.00;;;;;;5012330;28;20482;-61
2023/05/27 09:09:56;;;;;;;8.00;3.70;;;21.90;91.80;;;;;;5012687;28;21000;-61
2023/05/27 09:12:25;;;;;;;8.33;3.60;;;22.00;91.70;;;;;;5012459;28;20808;-62
2023/05/27 09:14:53;;;;;;;10.10;4.00;;;22.10;90.90;;;;;;5012748;28;21027;-62
2023/05/27 09:17:23;;;;;;;10.80;3.73;;;22.20;92.30;;;;;;5012321;28;20478;-61
2023/05/27 09:19:53;;;;;;;10.63;4.03;;;22.40;92.90;;;;;;5011834;28;20525;-61
2023/05/27 09:22:22;;;;;;;6.83;3.73;;;22.40;93.10;;;;;;5012067;28;20458;-62
2023/05/27 09:24:50;;;;;;;8.70;3.93;;;22.60;92.70;;;;;;5012170;28;20562;-61
2023/05/27 09:27:17;;;;;;;9.47;4.17;;;22.80;92.10;;;;;;4994576;28;20464;-61
2023/05/27 09:29:45;;;;;;;9.10;3.90;;;22.90;91.60;;;;;;4994800;28;20462;-62
2023/05/27 09:32:12;;;;;;;7.10;3.73;;;23.00;91.60;;;;;;5011726;28;20471;-61
2023/05/27 09:34:40;;;;;;;9.50;4.90;;;23.20;92.00;;;;;;5011782;28;20458;-62
2023/05/27 09:37:14;;;;;;;11.40;3.57;;;23.30;90.10;;;;;;5012265;28;20456;-62
2023/05/27 09:39:42;;;;;;;7.10;3.97;;;23.50;93.90;;;;;;5012749;28;20483;-62
2023/05/27 09:42:10;;;;;;;6.33;3.57;;;23.70;89.60;;;;;;5012501;28;20460;-63
2023/05/27 09:44:40;;;;;;;9.20;3.57;;;23.80;92.10;;;;;;5012327;28;20471;-62
2023/05/27 09:49:39;;;;;;;10.37;4.00;;;24.10;92.20;;;;;;5037930;28;20478;-66
2023/05/27 09:52:10;;;;;;;10.63;4.40;;;24.10;89.50;;;;;;5035796;28;20545;-67
2023/05/27 09:54:40;;;;;;;6.10;3.60;;;24.20;88.10;;;;;;5032662;28;20469;-64
2023/05/27 09:57:11;;;;;;;8.10;3.97;;;24.20;87.50;;;;;;5032086;28;20683;-66
2023/05/27 09:59:40;;;;;;;11.33;3.70;;;24.20;90.50;;;;;;5032305;28;20540;-68
2023/05/27 10:02:10;;;;;;;9.43;4.30;;;24.40;89.80;;;;;;5031842;28;20469;-65
2023/05/27 10:04:38;;;;;;;9.40;4.97;;;24.40;85.50;;;;;;5032229;28;20451;-66
2023/05/27 10:07:05;;;;;;;5.80;3.80;;;24.60;87.80;;;;;;5032078;28;20816;-68
2023/05/27 10:09:33;;;;;;;8.40;4.60;;;24.70;86.80;;;;;;5032196;28;20458;-65
2023/05/27 10:12:01;;;;;;;7.53;4.70;;;24.80;87.70;;;;;;5031654;28;20473;-65
2023/05/27 10:14:29;;;;;;;8.97;3.90;;;25.00;87.20;;;;;;5031125;28;20458;-67
2023/05/27 10:16:57;;;;;;;8.63;4.07;;;25.00;86.50;;;;;;5031636;28;20455;-66
2023/05/27 10:19:27;;;;;;;8.57;4.10;;;24.90;83.90;;;;;;5037281;28;20507;-66
2023/05/27 10:22:08;;;;;;;5.80;3.70;;;24.90;85.80;;;;;;5023646;28;20462;-66
2023/05/27 10:27:12;;;;;;;7.80;3.90;;;25.00;86.00;;;;;;5287868;22;20479;-66
2023/05/27 10:29:40;;;;;;;8.73;4.20;;;25.10;84.40;;;;;;5091912;28;21110;-63
2023/05/27 10:32:08;;;;;;;7.27;4.13;;;25.00;81.20;;;;;;5091668;28;20466;-63
2023/05/27 10:34:36;;;;;;;10.20;4.87;;;25.10;83.80;;;;;;5091892;28;20460;-63
2023/05/27 10:37:04;;;;;;;10.47;4.50;;;25.30;83.30;;;;;;5091662;28;20543;-63
2023/05/27 10:39:31;;;;;;;8.50;4.47;;;25.40;82.70;;;;;;5092143;28;20463;-63
2023/05/27 10:41:58;;;;;;;8.20;4.10;;;25.50;84.70;;;;;;5091618;28;20946;-64
2023/05/27 10:44:31;;;;;;;7.60;4.00;;;25.60;81.40;;;;;;5091826;28;20555;-63
2023/05/27 10:47:02;;;;;;;8.13;3.90;;;25.70;82.30;;;;;;5091740;28;20486;-63
2023/05/27 10:49:35;;;;;;;8.00;4.50;;;25.70;81.80;;;;;;5091875;28;20858;-63
2023/05/27 10:52:10;;;;;;;8.00;4.03;;;25.70;81.10;;;;;;5091960;28;20535;-64
2023/05/27 10:54:38;;;;;;;6.50;3.67;;;25.90;82.30;;;;;;5092139;28;20455;-63
2023/05/27 10:57:07;;;;;;;11.47;4.40;;;26.10;82.10;;;;;;5091809;28;20549;-63
2023/05/27 10:59:42;;;;;;;6.80;4.00;;;26.20;80.00;;;;;;5091238;28;20863;-64
2023/05/27 11:02:09;;;;;;;9.73;4.57;;;26.30;80.80;;;;;;5091442;28;21027;-65
2023/05/27 11:04:36;;;;;;;10.47;3.90;;;26.30;80.40;;;;;;5091655;28;20464;-64
2023/05/27 11:07:04;;;;;;;7.60;4.27;;;26.40;80.90;;;;;;5091358;28;20483;-63
2023/05/27 11:09:31;;;;;;;10.00;4.80;;;26.50;79.00;;;;;;5091519;28;20950;-64
2023/05/27 11:12:03;;;;;;;6.60;4.00;;;26.60;79.10;;;;;;5091565;28;20512;-64
2023/05/27 11:14:31;;;;;;;7.20;4.10;;;26.70;80.80;;;;;;5091591;28;20537;-65
2023/05/27 11:16:59;;;;;;;11.47;4.73;;;26.80;78.50;;;;;;5091384;28;20466;-63
2023/05/27 11:19:28;;;;;;;8.83;3.93;;;27.00;80.80;;;;;;5091677;28;20491;-64
2023/05/27 11:21:56;;;;;;;6.30;4.00;;;27.10;78.00;;;;;;5091597;28;20451;-64
2023/05/27 11:24:23;;;;;;;6.43;4.00;;;27.10;78.60;;;;;;5092494;28;20467;-64
2023/05/27 11:26:50;;;;;;;5.50;3.40;;;27.20;78.70;;;;;;5095378;28;20487;-63
2023/05/27 11:29:20;;;;;;;9.20;4.60;;;27.40;77.50;;;;;;5095018;28;20460;-63
2023/05/27 11:31:48;;;;;;;7.10;4.13;;;27.50;77.80;;;;;;5095241;28;20460;-64
2023/05/27 11:34:19;;;;;;;9.27;4.33;;;27.70;76.90;;;;;;5094987;28;20452;-63
2023/05/27 11:36:49;;;;;;;7.17;4.20;;;27.70;76.30;;;;;;5095053;28;20505;-62
2023/05/27 11:39:17;;;;;;;8.43;4.30;;;27.70;77.10;;;;;;5094811;28;20458;-62
2023/05/27 11:41:51;;;;;;;8.50;4.00;;;27.70;75.80;;;;;;5094958;28;20506;-62
2023/05/27 11:44:20;;;;;;;11.17;5.03;;;27.80;75.80;;;;;;5094977;28;20488;-63
2023/05/27 11:46:48;;;;;;;7.67;4.50;;;27.90;75.10;;;;;;5094932;28;20586;-63
2023/05/27 11:49:20;;;;;;;8.27;4.80;;;27.90;75.50;;;;;;5095047;28;20448;-64
2023/05/27 11:51:48;;;;;;;8.33;4.17;;;28.00;74.00;;;;;;5094985;28;20875;-63
2023/05/27 11:54:23;;;;;;;6.03;3.47;;;28.40;77.10;;;;;;5094635;28;20462;-63
2023/05/27 11:56:52;;;;;;;7.60;4.47;;;28.60;74.20;;;;;;5094487;28;20459;-63
2023/05/27 11:59:21;;;;;;;8.60;4.27;;;28.60;71.80;;;;;;5094709;28;20517;-63
2023/05/27 12:01:49;;;;;;;9.27;4.10;;;28.60;75.80;;;;;;5094153;28;20452;-64
2023/05/27 12:04:18;;;;;;;8.50;4.50;;;29.00;74.40;;;;;;5094256;28;20460;-69
2023/05/27 12:06:47;;;;;;;8.07;4.57;;;29.00;72.10;;;;;;5094287;28;20491;-67
2023/05/27 12:09:15;;;;;;;11.30;4.43;;;29.20;72.60;;;;;;5094267;28;20452;-68
2023/05/27 12:11:42;;;;;;;10.20;4.10;;;29.10;72.50;;;;;;5094249;28;20460;-67
2023/05/27 12:14:09;;;;;;;7.70;3.67;;;29.00;72.90;;;;;;5094439;28;20451;-68
2023/05/27 12:16:36;;;;;;;8.53;4.20;;;28.80;73.40;;;;;;5093412;28;20981;-67
2023/05/27 12:19:04;;;;;;;9.10;4.03;;;29.00;73.60;;;;;;5094116;28;20534;-68
2023/05/27 12:21:32;;;;;;;8.80;4.10;;;29.10;72.30;;;;;;5094130;28;20490;-69
2023/05/27 12:24:04;;;;;;;7.20;4.20;;;29.20;72.80;;;;;;5094102;28;20849;-68
2023/05/27 12:26:31;;;;;;;8.40;3.97;;;29.30;71.60;;;;;;5093908;28;20515;-68
2023/05/27 12:28:58;;;;;;;13.97;4.07;;;29.50;71.60;;;;;;5093546;28;20515;-69
2023/05/27 12:31:26;;;;;;;8.90;4.40;;;29.40;69.90;;;;;;5093935;28;20788;-69
2023/05/27 12:33:53;;;;;;;6.73;3.83;;;29.50;68.30;;;;;;5094037;28;20492;-68
2023/05/27 12:36:21;;;;;;;8.37;4.10;;;29.70;71.70;;;;;;5093120;28;20459;-64
2023/05/27 12:38:49;;;;;;;5.80;3.70;;;29.90;71.10;;;;;;5093804;28;20452;-64
2023/05/27 12:41:17;;;;;;;6.50;3.40;;;30.00;70.80;;;;;;5093863;28;20455;-64
2023/05/27 12:43:44;;;;;;;7.37;3.93;;;29.80;70.30;;;;;;5075075;28;20462;-65
2023/05/27 12:46:14;;;;;;;8.63;4.40;;;29.60;71.00;;;;;;5092994;28;20476;-64
2023/05/27 12:48:41;;;;;;;7.30;3.70;;;29.60;70.60;;;;;;5092991;28;20459;-63
2023/05/27 12:51:10;;;;;;;6.00;3.80;;;29.80;70.30;;;;;;5054687;28;20461;-64
2023/05/27 12:53:38;;;;;;;7.70;3.63;;;29.90;68.40;;;;;;5072683;28;20506;-63
2023/05/27 12:56:07;;;;;;;9.43;3.70;;;30.10;70.20;;;;;;5072405;28;20518;-62
2023/05/27 12:58:34;;;;;;;5.50;3.43;;;30.00;68.00;;;;;;5073153;28;20456;-65